Whitehead, Alabama
Current Conditions -  °F | °C
As of 9:53 PM on Tuesday 21 Oct 2014 (Local Time) from KMSL Reporting Station
Clear Clear  
Wind Chill: 55°   Ceiling: Unl
Heat Index: 55°   Visibility: 10mi
Dew Point: 49°   Wind: 3mph
Humidity: 80%   Direction: 360°N
Pressure: 30.1"   Gusts: NA
Location:  34.8568°N, 87.316°W
Report Text: KMSL 220253Z AUTO 36003KT 10SM CLR 13/09 A3010 RMK AO2 SLP189 T01280094 53017 $
Loading
Personal Weather Stations






























Interactive Weather Map
Tropical Storm Tracking
New forecast layout! Learn more

10-Day Weather Forecast

Advertisements
Track Severe Weather on mobile